Terminal Aerodrome Forecast
Issued by NWS Atlanta, GA

Home | Current Version | Previous Version | Text Only | Print | Product List | Glossary On
Versions: 1 2 3 4 5 6 7 8 9 10 11 12 13 14 15 16 17 18 19 20 21 22 23 24 25 26 27 28 29 30 31 32 33 34 35 36 37 38
000
FTUS42 KFFC 181741
TAFAHN
TAF
KAHN 181741Z 1818/1918 14005KT P6SM -RA OVC015
     FM182000 11005KT P6SM -RA OVC025
     FM190400 12004KT 6SM -RA BKN020
     FM190700 11005KT 3SM -SHRA BR OVC007
     FM191500 16008KT 4SM -SHRA BR OVC012 PROB30 1915/1918 3SM TSRA
      BKN010CB OVC012=

USA.gov is the U.S. government's official web portal to all federal, state and local government web resources and services.